Time;durP1;ratioP1;P1;durP2;ratioP2;P2;SDS_P1;SDS_P2;PMS_P1;PMS_P2;Temp;Humidity;BMP_temperature;BMP_pressure;BME280_temperature;BME280_humidity;BME280_pressure;Samples;Min_cycle;Max_cycle;Signal;HPM_P1;HPM_P2
2023/01/24 00:01:21;;;;;;;20.95;15.07;;;;;;;4.17;69.82;103551.91;3604607;39;20051;-67
2023/01/24 00:03:48;;;;;;;19.77;14.35;;;;;;;4.18;70.15;103559.88;3607142;39;20493;-66
2023/01/24 00:06:14;;;;;;;19.40;14.27;;;;;;;4.19;70.13;103545.72;3606681;39;20043;-66
2023/01/24 00:08:40;;;;;;;18.15;13.75;;;;;;;4.18;69.51;103554.56;3607798;39;20086;-67
2023/01/24 00:11:10;;;;;;;18.35;13.20;;;;;;;4.17;69.81;103558.09;3604395;39;20321;-66
2023/01/24 00:13:37;;;;;;;18.35;14.20;;;;;;;3.85;69.80;103501.03;3604276;39;20762;-66
2023/01/24 00:16:11;;;;;;;18.67;13.95;;;;;;;4.17;69.73;103547.47;3602808;39;20078;-66
2023/01/24 00:18:37;;;;;;;19.48;14.18;;;;;;;4.17;69.95;103552.78;3605341;39;20060;-66
2023/01/24 00:21:12;;;;;;;19.63;13.80;;;;;;;4.18;70.26;103551.91;3605805;39;20043;-67
2023/01/24 00:23:40;;;;;;;18.90;13.75;;;;;;;4.18;70.16;103548.34;3602068;39;20047;-66
2023/01/24 00:26:06;;;;;;;18.63;13.98;;;;;;;4.20;69.96;103551.94;3605354;39;20812;-67
2023/01/24 00:28:33;;;;;;;18.45;13.40;;;;;;;4.17;69.56;103551.91;3605029;39;20063;-67
2023/01/24 00:30:58;;;;;;;18.58;13.93;;;;;;;4.17;69.94;103550.13;3603016;39;20055;-68
2023/01/24 00:33:24;;;;;;;17.48;13.57;;;;;;;3.99;69.30;103515.34;3604026;39;20102;-69
2023/01/24 00:35:51;;;;;;;18.80;14.05;;;;;;;4.13;69.54;103531.47;3603107;39;20132;-68
2023/01/24 00:38:18;;;;;;;21.02;14.45;;;;;;;4.20;69.85;103541.28;3603350;39;20085;-69
2023/01/24 00:40:45;;;;;;;18.67;14.07;;;;;;;4.01;69.93;103499.41;3607004;39;20083;-68
2023/01/24 00:43:11;;;;;;;19.02;14.75;;;;;;;4.21;69.53;103539.50;3604702;39;20362;-68
2023/01/24 00:45:39;;;;;;;18.83;14.23;;;;;;;4.21;69.66;103526.19;3606103;39;20095;-69
2023/01/24 00:48:07;;;;;;;19.70;14.05;;;;;;;4.18;69.43;103527.03;3606980;39;20065;-69
2023/01/24 00:50:34;;;;;;;19.80;14.43;;;;;;;4.17;69.80;103522.63;3606516;39;20093;-69
2023/01/24 00:53:00;;;;;;;18.48;13.73;;;;;;;4.16;69.61;103520.84;3606537;39;20047;-69
2023/01/24 00:55:26;;;;;;;19.60;14.10;;;;;;;4.16;69.63;103528.81;3605735;39;20400;-69
2023/01/24 00:57:53;;;;;;;20.23;14.30;;;;;;;4.14;69.64;103531.47;3606561;39;20081;-69
2023/01/24 01:00:19;;;;;;;17.75;13.15;;;;;;;4.12;69.30;103527.00;3598726;39;20039;-69
2023/01/24 01:02:45;;;;;;;18.35;13.60;;;;;;;4.13;69.30;103531.47;3604207;39;20066;-68
2023/01/24 01:05:10;;;;;;;19.83;13.63;;;;;;;4.15;69.30;103527.03;3605797;39;20047;-69
2023/01/24 01:07:36;;;;;;;19.58;13.77;;;;;;;4.16;69.14;103528.81;3601705;39;20342;-70
2023/01/24 01:10:03;;;;;;;18.88;14.05;;;;;;;4.16;69.87;103527.06;3602886;39;20335;-69
2023/01/24 01:12:29;;;;;;;18.52;13.75;;;;;;;4.17;69.99;103530.59;3603429;39;20374;-69
2023/01/24 01:14:55;;;;;;;19.80;14.00;;;;;;;4.13;70.28;103523.47;3604999;39;20117;-69
2023/01/24 01:17:20;;;;;;;18.55;13.60;;;;;;;4.05;69.19;103506.53;3601699;39;20429;-69
2023/01/24 01:19:46;;;;;;;18.23;13.80;;;;;;;4.13;69.76;103515.50;3604152;39;20114;-69
2023/01/24 01:22:11;;;;;;;16.83;12.07;;;;;;;4.12;69.06;103521.66;3603830;39;20043;-69
2023/01/24 01:24:37;;;;;;;19.02;13.88;;;;;;;4.11;69.54;103509.25;3604592;39;20415;-68
2023/01/24 01:27:03;;;;;;;18.77;13.35;;;;;;;4.13;69.76;103513.72;3604667;39;20059;-68
2023/01/24 01:29:28;;;;;;;17.48;12.60;;;;;;;4.11;69.34;103517.25;3605421;39;20402;-69
2023/01/24 01:31:54;;;;;;;17.45;11.93;;;;;;;4.08;69.18;103520.75;3603962;39;20074;-69
2023/01/24 01:34:20;;;;;;;18.13;12.90;;;;;;;4.12;69.37;103524.34;3603477;39;20381;-68
2023/01/24 01:36:45;;;;;;;15.63;11.82;;;;;;;4.13;69.59;103528.81;3604153;39;20058;-68
2023/01/24 01:39:11;;;;;;;16.77;12.23;;;;;;;4.12;69.08;103522.59;3608427;39;20047;-69
2023/01/24 01:41:36;;;;;;;17.02;11.60;;;;;;;4.12;69.60;103524.34;3606020;39;20089;-66
2023/01/24 01:44:40;;;;;;;17.40;12.98;;;;;;;4.11;69.72;103520.78;3603159;39;20058;-66
2023/01/24 01:47:35;;;;;;;18.93;12.87;;;;;;;4.05;70.00;103514.53;3602933;39;20083;-66
2023/01/24 01:50:36;;;;;;;18.10;12.40;;;;;;;4.09;69.57;103521.66;3607744;39;20057;-69
2023/01/24 01:53:03;;;;;;;17.05;12.32;;;;;;;4.10;69.68;103520.78;3601510;39;20063;-68
2023/01/24 01:55:38;;;;;;;18.20;12.85;;;;;;;4.11;69.59;103525.22;3605246;39;20349;-67
2023/01/24 01:58:04;;;;;;;15.73;11.93;;;;;;;4.11;69.51;103520.78;3603441;39;20120;-67
2023/01/24 02:00:30;;;;;;;18.02;13.00;;;;;;;4.11;69.94;103525.22;3602738;39;20047;-67
2023/01/24 02:05:51;;;;;;;16.85;12.60;;;;;;;4.11;69.99;103509.25;3605384;39;20051;-68
2023/01/24 02:08:22;;;;;;;17.05;12.25;;;;;;;4.10;69.68;103512.81;3603746;39;20051;-68
2023/01/24 02:13:43;;;;;;;19.05;13.57;;;;;;;4.05;70.20;103519.84;3603487;39;20104;-68
2023/01/24 02:16:12;;;;;;;20.02;13.25;;;;;;;4.00;70.15;103505.63;3602940;39;20363;-68
2023/01/24 02:18:41;;;;;;;18.88;13.45;;;;;;;4.05;69.99;103510.09;3604255;39;20087;-68
2023/01/24 02:21:25;;;;;;;18.38;13.15;;;;;;;4.05;70.37;103506.53;3603213;39;20062;-68
2023/01/24 02:23:51;;;;;;;19.35;13.68;;;;;;;4.04;70.36;103508.31;3606108;39;20050;-68
2023/01/24 02:26:22;;;;;;;19.95;14.02;;;;;;;4.07;70.19;103512.78;3602700;39;20047;-68
2023/01/24 02:29:12;;;;;;;19.90;14.52;;;;;;;4.09;70.25;103516.31;3605834;39;20086;-68
2023/01/24 02:32:05;;;;;;;19.00;13.10;;;;;;;3.91;70.21;103480.72;3605234;39;20114;-68
2023/01/24 02:34:31;;;;;;;18.15;12.95;;;;;;;4.08;70.27;103511.88;3603700;39;20176;-68
2023/01/24 02:37:02;;;;;;;20.10;14.75;;;;;;;4.06;70.17;103510.97;3603206;39;20406;-68
2023/01/24 02:39:53;;;;;;;19.88;14.75;;;;;;;4.06;69.82;103510.97;3602763;39;20148;-67
2023/01/24 02:42:26;;;;;;;19.80;14.18;;;;;;;4.05;70.25;103498.56;3605786;39;20271;-68
2023/01/24 02:45:09;;;;;;;20.02;14.95;;;;;;;4.03;70.64;103509.19;3605942;39;20051;-68
2023/01/24 02:47:46;;;;;;;21.70;15.18;;;;;;;4.03;70.53;103509.19;3605368;39;20494;-69
2023/01/24 02:50:12;;;;;;;20.20;14.70;;;;;;;4.05;71.10;103511.84;3602154;39;20422;-69
2023/01/24 02:55:24;;;;;;;20.58;14.88;;;;;;;4.00;70.86;103511.84;3602257;39;20058;-69
2023/01/24 02:58:05;;;;;;;24.45;15.85;;;;;;;4.03;70.57;103521.59;3604914;39;20087;-69
2023/01/24 03:00:37;;;;;;;19.75;14.45;;;;;;;3.99;71.02;103512.69;3604550;39;20058;-68
2023/01/24 03:03:04;;;;;;;21.10;14.32;;;;;;;3.70;70.93;103460.09;3601679;39;20053;-69
2023/01/24 03:05:46;;;;;;;20.65;14.70;;;;;;;3.94;71.05;103515.31;3604523;39;20062;-66
2023/01/24 03:08:12;;;;;;;21.60;14.98;;;;;;;3.91;70.51;103515.28;3604386;39;20294;-66
2023/01/24 03:10:38;;;;;;;20.40;14.57;;;;;;;3.95;70.90;103511.78;3603975;39;20104;-68
2023/01/24 03:34:57;;;;;;;;;;;;;;;3.82;71.00;103506.34;3607076;39;20058;-68
2023/01/24 03:40:14;;;;;;;22.23;14.73;;;;;;;3.81;70.93;103499.25;3607136;39;20057;-68
2023/01/24 03:42:47;;;;;;;20.83;15.10;;;;;;;3.79;71.36;103501.00;3608495;39;20112;-68
2023/01/24 03:45:27;;;;;;;20.05;14.48;;;;;;;3.81;71.61;103494.81;3603476;39;20302;-68
2023/01/24 03:47:58;;;;;;;21.92;15.38;;;;;;;3.85;71.55;103496.63;3603778;39;20090;-68
2023/01/24 03:53:24;;;;;;;20.92;14.27;;;;;;;3.13;71.28;103386.00;3607694;39;20073;-67
2023/01/24 03:55:58;;;;;;;20.48;13.60;;;;;;;3.83;71.40;103497.47;3606254;39;20066;-68
2023/01/24 03:58:28;;;;;;;21.83;14.48;;;;;;;3.82;71.62;103501.91;3605176;39;20059;-68
2023/01/24 04:00:55;;;;;;;22.02;15.38;;;;;;;3.75;71.17;103489.44;3605139;39;20124;-68
2023/01/24 04:03:21;;;;;;;22.08;14.55;;;;;;;3.85;71.71;103504.59;3599614;39;20047;-68
2023/01/24 04:05:48;;;;;;;20.92;15.02;;;;;;;3.85;71.87;103501.94;3605745;39;20082;-68
2023/01/24 04:08:13;;;;;;;20.40;14.48;;;;;;;3.79;71.91;103493.91;3603245;39;20110;-68
2023/01/24 04:10:39;;;;;;;20.65;14.85;;;;;;;3.81;71.15;103505.44;3604535;39;20059;-67
2023/01/24 04:13:05;;;;;;;19.55;14.13;;;;;;;3.81;71.25;103504.56;3604290;39;20584;-68
2023/01/24 04:15:32;;;;;;;20.13;14.80;;;;;;;3.82;71.22;103501.91;3606530;39;20055;-68
2023/01/24 04:18:01;;;;;;;21.40;13.98;;;;;;;3.83;71.81;103503.69;3605745;39;20055;-68
2023/01/24 04:20:30;;;;;;;22.50;15.38;;;;;;;3.86;71.95;103509.03;3603747;39;20063;-68
2023/01/24 04:23:00;;;;;;;20.20;14.10;;;;;;;3.76;72.39;103485.88;3606154;39;20062;-68
2023/01/24 04:25:25;;;;;;;22.67;15.98;;;;;;;3.79;72.14;103491.22;3604177;39;20086;-68
2023/01/24 04:27:51;;;;;;;20.73;14.68;;;;;;;3.84;71.97;103513.47;3603039;39;20270;-68
2023/01/24 04:30:16;;;;;;;20.92;14.73;;;;;;;3.81;71.40;103504.56;3602989;39;20063;-72
2023/01/24 04:32:43;;;;;;;21.27;14.65;;;;;;;3.80;71.69;103506.31;3604854;39;20055;-67
2023/01/24 04:35:16;;;;;;;19.55;14.05;;;;;;;3.76;71.57;103496.53;3604997;39;20059;-68
2023/01/24 04:37:42;;;;;;;;;;;;;;;3.76;71.32;103500.97;3608387;39;20055;-67
2023/01/24 04:40:08;;;;;;;19.88;13.90;;;;;;;3.77;71.76;103503.63;3606519;39;20758;-68
2023/01/24 04:42:34;;;;;;;20.25;13.80;;;;;;;3.62;71.78;103483.09;3602913;39;20365;-68
2023/01/24 04:45:00;;;;;;;21.75;15.38;;;;;;;3.78;72.22;103507.19;3602298;39;20054;-68
2023/01/24 04:47:25;;;;;;;21.23;15.15;;;;;;;3.78;72.15;103513.41;3603541;39;20287;-68
2023/01/24 04:49:51;;;;;;;19.80;14.10;;;;;;;3.79;71.86;103506.31;3604470;39;20052;-68
2023/01/24 04:52:17;;;;;;;21.73;14.85;;;;;;;3.77;71.52;103511.59;3607769;39;20055;-68
2023/01/24 04:54:43;;;;;;;19.25;14.13;;;;;;;3.75;71.49;103510.72;3602999;39;20054;-68
2023/01/24 04:57:11;;;;;;;20.10;14.60;;;;;;;3.72;71.50;103513.34;3602196;39;20059;-67
2023/01/24 04:59:37;;;;;;;21.27;14.60;;;;;;;3.71;71.75;103519.50;3605841;39;20100;-67
2023/01/24 05:02:03;;;;;;;20.42;14.15;;;;;;;3.68;71.73;103515.09;3596503;39;20091;-68
2023/01/24 05:04:28;;;;;;;18.67;14.20;;;;;;;3.69;71.46;103510.66;3604923;39;20149;-68
2023/01/24 05:06:54;;;;;;;21.90;15.57;;;;;;;3.43;71.52;103473.16;3604073;39;20159;-66
2023/01/24 05:09:20;;;;;;;21.67;14.65;;;;;;;3.67;71.41;103517.72;3604089;39;20164;-66
2023/01/24 05:11:45;;;;;;;21.48;14.77;;;;;;;3.68;71.45;103514.19;3604580;39;20051;-66
2023/01/24 05:14:11;;;;;;;19.98;14.50;;;;;;;3.68;71.36;103514.19;3605089;39;20434;-66
2023/01/24 05:16:37;;;;;;;21.67;15.15;;;;;;;3.67;71.76;103510.63;3607041;39;20120;-67
2023/01/24 05:19:04;;;;;;;23.60;15.25;;;;;;;3.71;71.43;103515.13;3604259;39;20055;-66
2023/01/24 05:21:31;;;;;;;20.48;14.68;;;;;;;3.76;72.05;103525.78;3605442;39;20329;-67
2023/01/24 05:23:57;;;;;;;21.13;15.32;;;;;;;3.78;72.05;103523.16;3603156;39;20055;-65
2023/01/24 05:26:25;;;;;;;21.98;16.23;;;;;;;3.73;72.39;103513.34;3602786;39;20390;-66
2023/01/24 05:28:53;;;;;;;24.45;16.55;;;;;;;3.79;72.18;103527.59;3602267;39;20071;-65
2023/01/24 05:31:20;;;;;;;22.08;15.43;;;;;;;3.77;71.78;103532.00;3604548;39;20054;-65
2023/01/24 05:33:46;;;;;;;22.90;14.95;;;;;;;3.76;71.96;103532.88;3607882;39;20749;-65
2023/01/24 05:36:16;;;;;;;21.42;15.20;;;;;;;3.76;71.99;103525.78;3602801;39;20051;-65
2023/01/24 05:38:43;;;;;;;20.85;14.38;;;;;;;3.56;72.27;103487.47;3607263;39;20047;-66
2023/01/24 05:41:15;;;;;;;22.17;15.10;;;;;;;3.77;72.28;103524.91;3608384;39;20046;-65
2023/01/24 05:43:41;;;;;;;20.23;14.73;;;;;;;3.72;72.13;103524.88;3606335;39;20054;-65
2023/01/24 05:46:13;;;;;;;20.63;14.85;;;;;;;3.71;72.45;103531.06;3610377;39;20389;-65
2023/01/24 05:48:40;;;;;;;22.90;15.35;;;;;;;3.71;72.38;103536.41;3609119;39;20051;-65
2023/01/24 05:51:10;;;;;;;21.50;15.60;;;;;;;3.72;72.73;103534.63;3606121;39;20705;-65
2023/01/24 05:53:39;;;;;;;21.05;15.15;;;;;;;3.70;72.56;103542.56;3605197;39;20484;-65
2023/01/24 05:56:10;;;;;;;18.92;13.75;;;;;;;3.67;72.08;103544.31;3609937;39;20152;-67
2023/01/24 05:58:37;;;;;;;20.63;13.68;;;;;;;3.58;72.00;103533.56;3605668;39;20058;-68
2023/01/24 06:01:13;;;;;;;19.52;14.60;;;;;;;3.62;71.57;103548.72;3605828;39;20054;-67
2023/01/24 06:03:41;;;;;;;20.02;13.88;;;;;;;3.63;71.86;103545.16;3604626;39;20055;-67
2023/01/24 06:06:10;;;;;;;20.30;13.98;;;;;;;3.62;71.54;103551.38;3608377;39;20067;-67
2023/01/24 06:08:36;;;;;;;19.75;13.80;;;;;;;3.62;71.72;103551.38;3608429;39;20117;-67
2023/01/24 06:11:25;;;;;;;19.80;13.82;;;;;;;3.60;71.82;103551.34;3607067;39;20069;-66
2023/01/24 06:13:55;;;;;;;19.25;14.00;;;;;;;3.60;72.03;103555.75;3605229;39;20055;-65
2023/01/24 06:16:24;;;;;;;18.70;13.80;;;;;;;3.60;72.42;103558.44;3606810;39;20317;-64
2023/01/24 06:18:53;;;;;;;18.92;13.43;;;;;;;3.38;71.81;103520.06;3604282;39;20078;-65
2023/01/24 06:21:34;;;;;;;19.15;13.48;;;;;;;3.55;72.50;103554.81;3608866;39;20123;-65
2023/01/24 06:24:01;;;;;;;16.73;12.98;;;;;;;3.54;72.48;103558.34;3609462;39;20091;-64
2023/01/24 06:26:27;;;;;;;19.38;13.88;;;;;;;3.48;71.86;103549.41;3606646;39;20094;-65
2023/01/24 06:28:53;;;;;;;18.50;13.23;;;;;;;3.49;72.29;103560.97;3608290;39;20463;-64
2023/01/24 06:31:54;;;;;;;17.73;13.43;;;;;;;3.47;71.93;103557.41;3606879;39;20055;-65
2023/01/24 06:34:38;;;;;;;17.85;13.02;;;;;;;3.49;71.87;103566.28;3603071;39;20056;-65
2023/01/24 06:37:48;;;;;;;16.35;12.02;;;;;;;3.47;72.16;103568.91;3601482;39;20351;-65
2023/01/24 06:40:22;;;;;;;17.58;12.32;;;;;;;3.43;72.00;103569.75;3607125;39;20109;-65
2023/01/24 06:42:49;;;;;;;18.25;12.85;;;;;;;3.48;72.33;103570.69;3606162;39;20051;-65
2023/01/24 06:45:16;;;;;;;18.23;12.68;;;;;;;3.49;71.79;103575.16;3607190;39;20069;-65
2023/01/24 06:47:43;;;;;;;17.75;12.93;;;;;;;3.52;72.79;103578.72;3607091;39;20047;-65
2023/01/24 06:50:20;;;;;;;19.50;13.15;;;;;;;3.49;72.40;103575.16;3606887;39;20059;-66
2023/01/24 06:52:48;;;;;;;18.27;12.95;;;;;;;3.54;72.25;103571.66;3607916;39;20047;-65
2023/01/24 06:55:14;;;;;;;22.75;15.68;;;;;;;3.52;72.76;103576.97;3597994;39;20059;-65
2023/01/24 06:57:39;;;;;;;19.17;13.65;;;;;;;3.49;73.04;103576.94;3609376;39;20506;-66
2023/01/24 07:00:06;;;;;;;20.50;14.52;;;;;;;3.45;72.90;103575.97;3608088;39;20055;-66
2023/01/24 07:02:32;;;;;;;20.50;14.55;;;;;;;3.45;72.37;103573.31;3606583;39;20064;-65
2023/01/24 07:04:58;;;;;;;20.33;14.77;;;;;;;3.45;72.42;103570.66;3608810;39;20267;-65
2023/01/24 07:07:23;;;;;;;21.00;15.10;;;;;;;3.22;73.26;103537.59;3609674;39;20504;-65
2023/01/24 07:09:49;;;;;;;20.17;14.57;;;;;;;3.42;73.46;103581.25;3610167;39;20043;-66
2023/01/24 07:12:15;;;;;;;20.80;14.60;;;;;;;3.42;72.99;103580.38;3607337;39;20056;-65
2023/01/24 07:14:41;;;;;;;20.05;14.45;;;;;;;3.41;72.52;103584.78;3606235;39;20255;-66
2023/01/24 07:17:07;;;;;;;21.98;14.82;;;;;;;3.37;73.00;103588.31;3609904;39;20058;-65
2023/01/24 07:19:33;;;;;;;20.85;15.10;;;;;;;3.38;72.87;103587.41;3606034;39;20055;-64
2023/01/24 07:21:59;;;;;;;20.23;14.48;;;;;;;3.38;73.45;103595.38;3608424;39;20063;-66
2023/01/24 07:24:29;;;;;;;18.83;13.82;;;;;;;3.38;73.66;103594.50;3609985;39;20058;-66
2023/01/24 07:26:56;;;;;;;21.75;14.65;;;;;;;3.26;73.59;103580.16;3610785;39;20405;-65
2023/01/24 07:29:22;;;;;;;21.38;14.82;;;;;;;3.17;73.36;103572.09;3606672;39;20065;-65
2023/01/24 07:31:50;;;;;;;20.17;14.38;;;;;;;3.36;73.30;103612.19;3607282;39;20058;-65
2023/01/24 07:34:17;;;;;;;23.00;15.43;;;;;;;3.33;73.15;103610.41;3607086;39;20441;-65
2023/01/24 07:36:46;;;;;;;21.88;14.65;;;;;;;2.69;72.78;103497.91;3606949;39;20059;-65
2023/01/24 07:39:12;;;;;;;20.50;14.05;;;;;;;3.29;73.50;103613.88;3608062;39;20051;-66
2023/01/24 07:41:43;;;;;;;20.13;13.85;;;;;;;3.33;72.89;103623.69;3611459;39;20409;-65
2023/01/24 07:44:09;;;;;;;19.77;13.63;;;;;;;3.35;72.76;103621.94;3606614;39;20061;-65
2023/01/24 07:46:36;;;;;;;19.17;13.75;;;;;;;3.34;73.32;103616.63;3608126;39;20488;-65
2023/01/24 07:49:02;;;;;;;19.15;13.52;;;;;;;3.35;72.65;103618.38;3607708;39;20400;-65
2023/01/24 07:51:28;;;;;;;20.13;13.30;;;;;;;3.36;73.28;103625.47;3606146;39;20063;-67
2023/01/24 07:53:54;;;;;;;20.13;13.55;;;;;;;3.39;73.25;103622.88;3604529;39;20478;-67
2023/01/24 07:56:20;;;;;;;19.08;13.68;;;;;;;3.08;73.00;103573.75;3602157;39;20051;-65
2023/01/24 07:58:46;;;;;;;20.15;15.10;;;;;;;3.44;73.21;103635.34;3611570;39;20124;-64
2023/01/24 08:01:19;;;;;;;21.70;14.98;;;;;;;3.45;73.24;103633.59;3607364;39;20098;-64
2023/01/24 08:03:45;;;;;;;20.88;14.93;;;;;;;3.44;73.09;103638.00;3606410;39;20061;-65
2023/01/24 08:06:10;;;;;;;20.98;14.40;;;;;;;3.43;72.40;103635.34;3607494;39;20371;-64
2023/01/24 08:08:36;;;;;;;21.23;13.65;;;;;;;3.39;72.31;103639.72;3607835;39;20048;-66
2023/01/24 08:11:01;;;;;;;19.00;13.55;;;;;;;3.27;72.10;103618.31;3604823;39;20074;-64
2023/01/24 08:13:27;;;;;;;19.95;14.32;;;;;;;3.36;72.90;103649.41;3604692;39;20105;-64
2023/01/24 08:15:53;;;;;;;20.30;14.40;;;;;;;3.33;72.98;103634.34;3605143;39;20595;-64
2023/01/24 08:18:19;;;;;;;20.98;14.55;;;;;;;3.35;72.81;103631.69;3605815;39;22322;-64
2023/01/24 08:20:45;;;;;;;21.08;14.95;;;;;;;3.16;72.03;103609.28;3606853;39;20068;-65
2023/01/24 08:23:11;;;;;;;20.90;14.63;;;;;;;3.33;73.22;103637.00;3606513;39;20064;-65
2023/01/24 08:25:37;;;;;;;22.15;15.35;;;;;;;3.36;72.28;103638.78;3608402;39;20085;-65
2023/01/24 08:28:02;;;;;;;22.52;15.35;;;;;;;3.30;72.90;103628.97;3608189;39;20329;-65
2023/01/24 08:30:28;;;;;;;22.25;15.68;;;;;;;3.36;72.25;103639.69;3605842;39;20062;-64
2023/01/24 08:33:06;;;;;;;20.83;15.25;;;;;;;3.37;72.43;103641.47;3610102;39;20516;-64
2023/01/24 08:35:33;;;;;;;21.70;14.88;;;;;;;3.35;72.78;103642.31;3605758;39;20144;-65
2023/01/24 08:37:59;;;;;;;20.77;15.05;;;;;;;3.37;72.30;103646.78;3604306;39;20102;-65
2023/01/24 08:40:25;;;;;;;22.23;15.18;;;;;;;3.39;72.65;103650.34;3604923;39;20090;-64
2023/01/24 08:42:52;;;;;;;20.75;14.77;;;;;;;3.41;72.69;103653.03;3604873;39;20107;-63
2023/01/24 08:45:17;;;;;;;20.80;14.65;;;;;;;3.33;72.57;103639.66;3605145;39;20372;-64
2023/01/24 08:47:43;;;;;;;24.40;15.85;;;;;;;3.33;72.60;103647.63;3605195;39;20059;-64
2023/01/24 08:50:10;;;;;;;20.48;14.55;;;;;;;3.38;72.17;103655.66;3606927;39;20061;-64
2023/01/24 08:52:35;;;;;;;20.50;14.60;;;;;;;3.22;72.45;103633.28;3612593;39;20051;-64
2023/01/24 08:55:01;;;;;;;21.85;15.35;;;;;;;3.39;71.98;103660.97;3606390;39;20066;-64
2023/01/24 08:57:27;;;;;;;21.70;14.25;;;;;;;3.38;71.87;103661.88;3606990;39;20075;-63
2023/01/24 08:59:53;;;;;;;21.45;14.95;;;;;;;3.40;71.74;103673.44;3607325;39;20055;-64
2023/01/24 09:02:19;;;;;;;21.65;14.27;;;;;;;3.39;72.18;103668.94;3608137;39;20116;-63
2023/01/24 09:04:44;;;;;;;21.30;14.43;;;;;;;3.42;71.65;103665.44;3607556;39;20067;-64
2023/01/24 09:07:11;;;;;;;22.42;15.23;;;;;;;3.42;71.91;103668.09;3608536;39;20066;-63
2023/01/24 09:09:37;;;;;;;21.00;14.75;;;;;;;3.46;71.82;103664.66;3609199;39;20086;-64
2023/01/24 09:12:03;;;;;;;19.70;13.52;;;;;;;3.48;72.23;103669.09;3607773;39;20428;-64
2023/01/24 09:14:28;;;;;;;21.60;15.05;;;;;;;3.47;71.74;103663.75;3606509;39;20680;-64
2023/01/24 09:16:54;;;;;;;21.50;14.85;;;;;;;3.53;71.22;103670.94;3606911;39;20055;-63
2023/01/24 09:19:20;;;;;;;21.48;14.60;;;;;;;3.53;71.78;103674.47;3606949;39;20051;-64
2023/01/24 09:21:50;;;;;;;20.60;14.07;;;;;;;3.51;71.30;103670.00;3606916;39;20099;-64
2023/01/24 09:24:16;;;;;;;21.02;14.15;;;;;;;3.56;71.57;103669.19;3607301;39;20043;-64
2023/01/24 09:26:44;;;;;;;23.20;15.48;;;;;;;3.55;70.71;103674.47;3608263;39;20055;-64
2023/01/24 09:29:09;;;;;;;20.90;13.88;;;;;;;3.53;70.98;103671.81;3606192;39;20686;-63
2023/01/24 09:31:35;;;;;;;20.58;13.73;;;;;;;3.52;71.06;103677.09;3606553;39;20051;-64
2023/01/24 09:34:00;;;;;;;19.08;13.18;;;;;;;3.49;70.53;103677.97;3607804;39;20067;-64
2023/01/24 09:36:27;;;;;;;19.73;13.20;;;;;;;3.49;69.85;103676.22;3606647;39;20066;-63
2023/01/24 09:38:53;;;;;;;19.27;13.40;;;;;;;3.47;70.01;103679.72;3606934;39;20070;-64
2023/01/24 09:41:24;;;;;;;19.88;13.43;;;;;;;3.45;70.09;103674.34;3606658;39;20055;-63
2023/01/24 09:43:58;;;;;;;20.98;12.82;;;;;;;3.35;69.60;103685.75;3604668;39;20059;-64
2023/01/24 09:46:40;;;;;;;;;;;;;;;3.37;70.02;103684.00;3607183;39;20094;-63
2023/01/24 09:49:33;;;;;;;16.67;11.27;;;;;;;3.39;70.43;103682.25;3608072;39;19931;-64
2023/01/24 09:52:06;;;;;;;24.45;15.57;;;;;;;3.42;70.17;103682.28;3606259;39;20125;-63
2023/01/24 09:54:51;;;;;;;21.85;13.45;;;;;;;2.69;70.84;103553.69;3605248;39;20067;-64
2023/01/24 09:57:30;;;;;;;19.38;11.90;;;;;;;3.45;70.77;103676.13;3604901;39;20294;-64
2023/01/24 10:00:34;;;;;;;18.65;12.68;;;;;;;3.47;70.10;103682.38;3607427;39;20048;-65
2023/01/24 10:03:01;;;;;;;17.50;12.02;;;;;;;3.45;69.53;103695.63;3589431;39;20135;-65
2023/01/24 10:05:38;;;;;;;17.50;12.80;;;;;;;3.49;70.07;103699.25;3608916;39;20062;-65
2023/01/24 10:08:51;;;;;;;18.70;12.63;;;;;;;3.48;70.36;103698.34;3605727;39;20491;-64
2023/01/24 10:12:01;;;;;;;19.48;12.45;;;;;;;3.48;69.96;103681.50;3572686;39;20305;-64
2023/01/24 10:15:28;;;;;;;17.60;11.88;;;;;;;3.52;69.91;103695.72;3608851;39;20066;-64
2023/01/24 10:18:46;;;;;;;15.77;10.77;;;;;;;3.54;69.89;103692.22;3598481;39;20063;-64
2023/01/24 10:21:30;;;;;;;17.40;11.48;;;;;;;3.57;69.93;103689.59;3610002;39;20118;-64
2023/01/24 10:24:07;;;;;;;17.20;11.85;;;;;;;3.62;69.49;103700.31;3608475;39;20059;-64
2023/01/24 10:26:42;;;;;;;17.02;11.95;;;;;;;3.56;69.41;103690.47;3610691;39;20329;-65
2023/01/24 10:29:20;;;;;;;15.70;11.35;;;;;;;3.67;69.54;103703.91;3610517;39;20054;-64
2023/01/24 10:32:15;;;;;;;16.52;11.30;;;;;;;3.69;68.99;103703.06;3612371;39;20043;-65
2023/01/24 10:34:47;;;;;;;17.77;11.68;;;;;;;3.69;68.83;103696.84;3610164;39;20059;-64
2023/01/24 10:37:25;;;;;;;14.77;10.48;;;;;;;3.72;69.22;103695.13;3606248;39;20051;-65
2023/01/24 10:39:52;;;;;;;17.95;11.98;;;;;;;3.72;68.93;103686.25;3609228;39;20045;-66
2023/01/24 10:42:23;;;;;;;18.02;11.45;;;;;;;3.75;68.98;103696.06;3609376;39;20279;-65
2023/01/24 10:44:51;;;;;;;17.00;10.95;;;;;;;3.79;69.11;103698.75;3611428;39;20077;-64
2023/01/24 10:47:46;;;;;;;14.15;9.90;;;;;;;3.63;69.51;103659.53;3609520;39;20099;-64
2023/01/24 10:50:17;;;;;;;17.33;11.95;;;;;;;3.88;69.21;103692.66;3604231;39;20117;-64
2023/01/24 10:52:48;;;;;;;25.58;16.15;;;;;;;3.68;69.14;103652.53;3602567;39;20074;-65
2023/01/24 10:55:36;;;;;;;17.52;11.38;;;;;;;3.89;68.57;103690.00;3602758;39;20070;-65
2023/01/24 10:58:20;;;;;;;15.95;11.38;;;;;;;3.93;68.43;103689.19;3604908;39;20100;-65
2023/01/24 11:00:48;;;;;;;15.38;10.88;;;;;;;3.93;68.72;103686.53;3601800;39;20054;-65
2023/01/24 11:03:29;;;;;;;16.92;11.75;;;;;;;3.95;68.19;103694.50;3605103;39;20057;-65
2023/01/24 11:05:58;;;;;;;15.50;11.05;;;;;;;3.93;68.37;103686.53;3605995;39;20055;-66
2023/01/24 11:08:36;;;;;;;16.13;10.70;;;;;;;3.92;67.86;103678.50;3607119;39;20054;-66
2023/01/24 11:11:22;;;;;;;18.45;11.20;;;;;;;3.71;68.31;103641.88;3604701;39;20051;-65
2023/01/24 11:13:55;;;;;;;17.33;11.70;;;;;;;3.93;67.97;103689.19;3605058;39;20374;-65
2023/01/24 11:16:47;;;;;;;16.60;11.57;;;;;;;3.93;68.36;103678.53;3608882;39;20047;-65
2023/01/24 11:19:33;;;;;;;15.13;11.48;;;;;;;3.90;68.29;103674.94;3607229;39;20058;-65
2023/01/24 11:22:20;;;;;;;17.85;11.50;;;;;;;3.87;67.65;103670.47;3601313;39;20125;-65
2023/01/24 11:24:46;;;;;;;17.15;10.85;;;;;;;3.87;68.16;103669.56;3605131;39;20111;-65
2023/01/24 11:27:20;;;;;;;15.70;10.75;;;;;;;3.86;68.10;103667.78;3609920;39;20381;-65
2023/01/24 11:30:21;;;;;;;16.80;11.27;;;;;;;3.82;68.42;103650.91;3607460;39;20104;-66
2023/01/24 11:33:16;;;;;;;17.05;11.05;;;;;;;3.87;68.62;103659.84;3588939;39;20344;-66
2023/01/24 11:36:01;;;;;;;16.98;11.18;;;;;;;3.89;68.51;103663.38;3597378;39;20112;-66
2023/01/24 11:38:42;;;;;;;14.23;10.50;;;;;;;3.90;68.08;103651.91;3604364;39;20291;-65
2023/01/24 11:41:39;;;;;;;15.85;10.60;;;;;;;3.80;67.91;103628.69;3603851;39;20091;-65
2023/01/24 11:44:42;;;;;;;16.83;10.95;;;;;;;3.90;68.09;103650.97;3596988;39;20371;-65
2023/01/24 11:47:18;;;;;;;16.17;11.10;;;;;;;3.90;67.93;103653.63;3606916;39;20047;-65
2023/01/24 11:50:22;;;;;;;16.58;10.30;;;;;;;3.88;67.50;103645.66;3606768;39;20087;-65
2023/01/24 11:52:52;;;;;;;16.00;10.77;;;;;;;3.89;67.91;103650.09;3606706;39;20091;-65
2023/01/24 11:55:33;;;;;;;14.77;10.80;;;;;;;3.88;68.03;103648.31;3608225;39;20034;-65
2023/01/24 11:58:23;;;;;;;16.63;10.77;;;;;;;3.87;67.82;103646.53;3609250;39;20062;-65
2023/01/24 12:01:00;;;;;;;16.55;11.50;;;;;;;3.86;67.87;103642.06;3607845;39;20043;-66
2023/01/24 12:04:16;;;;;;;16.33;10.77;;;;;;;3.89;68.86;103639.44;3606426;39;20043;-64
2023/01/24 12:07:02;;;;;;;15.65;10.90;;;;;;;3.83;68.03;103636.72;3604735;39;20091;-65
2023/01/24 12:10:04;;;;;;;16.38;10.45;;;;;;;3.84;68.11;103627.88;3608568;39;20047;-65
2023/01/24 12:13:08;;;;;;;14.90;10.30;;;;;;;3.81;67.53;103630.50;3575662;40;20060;-64
2023/01/24 12:15:52;;;;;;;;;;;;;;;3.54;67.94;103580.50;3607470;39;20047;-65
2023/01/24 12:18:52;;;;;;;15.13;10.17;;;;;;;3.80;67.96;103628.69;3605608;39;19985;-65